Time;durP1;ratioP1;P1;durP2;ratioP2;P2;SDS_P1;SDS_P2;PMS_P1;PMS_P2;Temp;Humidity;BMP_temperature;BMP_pressure;BME280_temperature;BME280_humidity;BME280_pressure;Samples;Min_cycle;Max_cycle;Signal;HPM_P1;HPM_P2
2023/10/10 02:13:50;;;;;;;18.67;9.35;;;16.00;99.90;;;;;;5110630;27;20401;-80
2023/10/10 02:16:24;;;;;;;19.27;11.05;;;16.00;99.90;;;;;;5110231;28;20023;-82
2023/10/10 02:18:54;;;;;;;17.90;9.40;;;16.00;99.90;;;;;;5110105;28;20031;-82
2023/10/10 02:21:42;;;;;;;30.77;11.23;;;16.00;99.90;;;;;;5111306;28;20015;-80
2023/10/10 02:26:53;;;;;;;19.80;10.30;;;16.10;99.90;;;;;;5105043;28;20063;-81
2023/10/10 02:29:48;;;;;;;21.55;9.02;;;16.20;99.90;;;;;;5109797;28;20477;-80
2023/10/10 02:32:09;;;;;;;33.95;9.07;;;16.10;99.90;;;;;;5110254;28;20043;-80
2023/10/10 02:34:36;;;;;;;24.40;10.70;;;16.20;99.90;;;;;;5110985;28;20020;-80
2023/10/10 02:37:30;;;;;;;22.73;9.70;;;16.30;99.90;;;;;;5110598;28;20015;-81
2023/10/10 02:40:07;;;;;;;16.13;8.55;;;16.30;99.90;;;;;;5111154;28;20103;-79
2023/10/10 02:42:35;;;;;;;18.00;9.02;;;16.40;99.90;;;;;;5110369;28;20103;-80
2023/10/10 02:45:02;;;;;;;24.10;9.23;;;16.40;99.90;;;;;;5110637;28;20112;-81
2023/10/10 02:47:32;;;;;;;24.92;9.27;;;16.50;99.90;;;;;;5108810;28;20057;-80
2023/10/10 02:50:39;;;;;;;17.50;9.13;;;16.50;99.90;;;;;;5108894;28;20073;-80
2023/10/10 02:53:03;;;;;;;20.27;9.30;;;16.50;99.90;;;;;;5109621;28;20043;-81
2023/10/10 02:55:33;;;;;;;19.63;8.38;;;16.60;99.90;;;;;;5109841;28;20034;-82
2023/10/10 02:58:00;;;;;;;17.23;8.32;;;16.60;99.90;;;;;;5109009;28;20023;-80
2023/10/10 03:02:54;;;;;;;20.45;8.57;;;16.60;99.90;;;;;;5109929;28;20024;-81
2023/10/10 03:05:40;;;;;;;17.92;8.68;;;16.60;99.90;;;;;;5108938;28;20031;-79
2023/10/10 03:08:30;;;;;;;20.30;8.13;;;16.60;99.90;;;;;;5108547;28;20016;-80
2023/10/10 03:11:00;;;;;;;16.58;8.50;;;16.60;99.90;;;;;;5108484;28;20114;-84
2023/10/10 03:16:59;;;;;;;19.60;8.18;;;16.50;99.90;;;;;;5109180;28;20039;-80
2023/10/10 03:34:56;;;;;;;19.60;8.25;;;16.40;99.90;;;;;;5096540;28;20074;-80
2023/10/10 03:39:54;;;;;;;27.42;9.40;;;16.30;99.90;;;;;;5096520;28;20032;-82
2023/10/10 05:24:09;;;;;;;24.20;12.27;;;15.50;99.90;;;;;;5094809;28;20031;-80
2023/10/10 05:26:46;;;;;;;25.35;13.07;;;15.50;99.90;;;;;;5093409;28;20024;-80
2023/10/10 05:29:19;;;;;;;30.75;13.05;;;15.50;99.90;;;;;;5094365;28;20020;-80
2023/10/10 05:31:46;;;;;;;26.60;13.45;;;15.50;99.90;;;;;;5094638;28;20012;-79
2023/10/10 05:34:14;;;;;;;23.75;12.25;;;15.50;99.90;;;;;;5094673;28;20024;-81
2023/10/10 05:36:47;;;;;;;31.05;13.50;;;15.60;99.90;;;;;;5092885;28;20023;-79
2023/10/10 05:39:22;;;;;;;27.20;12.57;;;15.60;99.90;;;;;;5095066;28;20545;-80
2023/10/10 05:41:54;;;;;;;32.58;13.25;;;15.70;99.90;;;;;;5094802;28;20047;-81
2023/10/10 05:44:21;;;;;;;35.15;13.95;;;15.80;99.90;;;;;;5093714;28;20028;-82
2023/10/10 05:46:47;;;;;;;41.22;13.77;;;15.90;99.90;;;;;;5093071;28;20446;-79
2023/10/10 05:49:14;;;;;;;38.33;14.82;;;15.90;99.90;;;;;;5094247;28;20020;-80
2023/10/10 05:51:40;;;;;;;32.83;15.05;;;15.80;99.90;;;;;;5092811;28;20476;-80
2023/10/10 05:54:11;;;;;;;42.10;15.70;;;15.80;99.90;;;;;;5093216;28;20051;-78
2023/10/10 05:56:37;;;;;;;52.88;16.25;;;15.70;99.90;;;;;;5093019;28;20115;-78
2023/10/10 05:59:03;;;;;;;42.17;15.10;;;15.60;99.90;;;;;;5094240;28;20028;-79
2023/10/10 06:01:30;;;;;;;41.47;15.48;;;15.60;99.90;;;;;;5092890;28;20024;-78
2023/10/10 06:03:57;;;;;;;50.63;16.65;;;15.60;99.90;;;;;;5093657;28;20019;-78
2023/10/10 06:06:23;;;;;;;41.33;15.95;;;15.60;99.90;;;;;;5094385;28;20468;-78
2023/10/10 06:09:00;;;;;;;40.97;15.60;;;15.60;99.90;;;;;;5092837;28;20107;-79
2023/10/10 06:11:26;;;;;;;37.15;15.00;;;15.60;99.90;;;;;;5092317;28;20027;-78
2023/10/10 06:13:53;;;;;;;33.83;13.77;;;15.60;99.90;;;;;;5093987;28;20023;-79
2023/10/10 06:16:20;;;;;;;28.08;12.98;;;15.60;99.90;;;;;;5094106;28;20024;-78
2023/10/10 06:18:47;;;;;;;27.75;13.70;;;15.70;99.90;;;;;;5092418;28;20021;-79
2023/10/10 06:21:16;;;;;;;28.17;13.65;;;15.80;99.90;;;;;;5092700;28;20028;-79
2023/10/10 06:23:44;;;;;;;34.35;15.60;;;15.80;99.90;;;;;;5091853;28;20438;-79
2023/10/10 06:26:12;;;;;;;48.35;14.50;;;15.90;99.90;;;;;;5092123;28;20592;-79
2023/10/10 06:28:47;;;;;;;32.53;13.63;;;16.00;99.90;;;;;;5092716;28;20077;-79
2023/10/10 06:31:19;;;;;;;35.15;14.45;;;16.10;99.90;;;;;;5092557;28;20110;-79
2023/10/10 06:33:49;;;;;;;36.60;14.25;;;16.20;99.90;;;;;;5092498;28;20024;-79
2023/10/10 06:41:36;;;;;;;;;;;16.40;99.90;;;;;;5076744;28;20020;-80
2023/10/10 06:44:04;;;;;;;46.83;16.88;;;16.60;99.90;;;;;;5091440;28;19907;-79
2023/10/10 06:46:37;;;;;;;38.78;17.08;;;16.70;99.90;;;;;;5091437;28;20055;-79
2023/10/10 06:49:06;;;;;;;41.55;16.75;;;16.80;99.90;;;;;;5093274;28;20381;-78
2023/10/10 06:51:39;;;;;;;28.48;14.23;;;16.90;99.90;;;;;;5092323;28;20074;-79
2023/10/10 06:54:08;;;;;;;31.98;15.05;;;17.00;99.90;;;;;;5092779;28;20520;-79
2023/10/10 06:56:44;;;;;;;29.73;14.93;;;17.20;99.90;;;;;;5090317;28;20024;-79
2023/10/10 06:59:16;;;;;;;32.00;13.98;;;17.30;99.90;;;;;;5093305;28;20110;-78
2023/10/10 07:01:45;;;;;;;32.88;13.90;;;17.50;99.90;;;;;;5097396;28;20013;-80
2023/10/10 07:04:13;;;;;;;26.75;12.02;;;17.70;99.90;;;;;;5096697;28;20020;-79
2023/10/10 07:06:43;;;;;;;24.23;11.25;;;17.90;99.90;;;;;;5097277;28;20459;-79
2023/10/10 07:09:29;;;;;;;27.50;11.68;;;18.10;99.90;;;;;;5096857;28;20043;-78
2023/10/10 07:11:56;;;;;;;25.45;11.50;;;18.30;99.90;;;;;;5094972;28;20043;-78
2023/10/10 07:14:25;;;;;;;21.92;10.80;;;18.40;99.90;;;;;;5096723;28;20024;-79
2023/10/10 07:16:56;;;;;;;28.17;10.55;;;18.50;99.90;;;;;;5095620;28;20059;-78
2023/10/10 07:19:29;;;;;;;25.67;12.77;;;18.60;99.90;;;;;;5097189;28;20059;-80
2023/10/10 07:21:56;;;;;;;33.25;11.07;;;18.70;99.90;;;;;;5097036;28;20507;-79
2023/10/10 07:24:28;;;;;;;28.60;11.13;;;18.70;99.90;;;;;;5096590;28;20020;-79
2023/10/10 07:27:10;;;;;;;24.58;12.40;;;18.80;99.90;;;;;;5096710;28;20020;-78
2023/10/10 07:32:17;;;;;;;31.58;11.82;;;18.90;99.90;;;;;;5096567;28;20032;-78
2023/10/10 07:34:49;;;;;;;27.88;10.93;;;18.90;99.90;;;;;;5096888;28;20107;-80
2023/10/10 07:37:18;;;;;;;27.95;10.90;;;18.90;99.90;;;;;;5096669;28;20028;-78
2023/10/10 07:42:34;;;;;;;19.75;9.77;;;18.90;99.90;;;;;;5096779;28;20050;-79
2023/10/10 07:45:13;;;;;;;20.35;9.43;;;18.90;99.90;;;;;;5096766;28;20027;-79
2023/10/10 07:50:28;;;;;;;22.52;8.48;;;18.90;99.90;;;;;;5065157;28;20386;-79
2023/10/10 07:52:54;;;;;;;24.63;9.93;;;18.90;99.90;;;;;;5083243;28;20036;-79
2023/10/10 07:55:22;;;;;;;21.23;9.98;;;18.90;99.90;;;;;;5094981;28;20358;-77
2023/10/10 07:58:01;;;;;;;22.23;10.15;;;19.00;99.90;;;;;;5095870;28;20020;-79
2023/10/10 08:00:37;;;;;;;31.45;12.10;;;19.00;99.90;;;;;;5094596;28;20020;-80
2023/10/10 08:03:05;;;;;;;29.73;10.52;;;19.20;99.90;;;;;;5096293;28;20107;-78
2023/10/10 08:05:31;;;;;;;22.98;10.02;;;19.40;99.90;;;;;;5096225;28;20181;-79
2023/10/10 08:07:57;;;;;;;23.58;9.15;;;19.50;99.90;;;;;;5094637;28;20103;-78
2023/10/10 08:10:29;;;;;;;29.50;9.63;;;19.60;99.90;;;;;;5096029;28;20450;-79
2023/10/10 08:13:02;;;;;;;20.23;9.25;;;19.70;99.90;;;;;;5094691;28;20044;-78
2023/10/10 08:15:28;;;;;;;18.88;8.85;;;19.80;99.90;;;;;;5094396;28;20035;-78
2023/10/10 08:17:54;;;;;;;21.67;9.80;;;19.90;99.90;;;;;;5095940;28;20028;-79
2023/10/10 08:21:08;;;;;;;20.35;9.07;;;19.90;99.90;;;;;;5093931;28;20111;-80
2023/10/10 08:23:24;;;;;;;31.17;9.00;;;20.10;99.90;;;;;;5095951;28;20028;-78
2023/10/10 08:25:51;;;;;;;20.75;8.48;;;20.10;99.90;;;;;;5095783;28;20027;-77
2023/10/10 08:28:18;;;;;;;23.52;8.07;;;20.10;99.90;;;;;;5095810;28;20016;-79
2023/10/10 08:30:44;;;;;;;23.60;7.90;;;20.20;99.90;;;;;;5094509;28;20045;-78
2023/10/10 08:33:09;;;;;;;24.95;9.00;;;20.20;99.90;;;;;;5094343;28;20118;-79
2023/10/10 08:35:38;;;;;;;22.25;8.95;;;20.20;99.90;;;;;;5093424;28;20365;-77
2023/10/10 08:38:05;;;;;;;27.17;10.50;;;20.30;99.90;;;;;;5092534;28;20031;-79
2023/10/10 08:40:36;;;;;;;30.17;9.40;;;20.50;99.90;;;;;;5085173;28;20024;-78
2023/10/10 08:43:08;;;;;;;31.40;10.98;;;20.60;99.90;;;;;;5090966;28;20156;-79
2023/10/10 08:45:49;;;;;;;32.70;11.57;;;20.70;99.90;;;;;;5094060;28;20027;-80
2023/10/10 08:48:16;;;;;;;21.15;8.55;;;21.00;99.90;;;;;;5093770;28;20020;-78
2023/10/10 08:50:46;;;;;;;19.95;7.53;;;21.10;99.90;;;;;;5095411;28;20070;-79
2023/10/10 08:53:13;;;;;;;20.35;5.13;;;21.20;99.90;;;;;;5094109;28;20123;-78
2023/10/10 08:55:40;;;;;;;14.82;4.95;;;21.40;99.90;;;;;;5094986;28;20040;-80
2023/10/10 08:58:13;;;;;;;19.13;5.30;;;21.30;99.90;;;;;;5093826;28;20111;-80
2023/10/10 09:00:39;;;;;;;14.02;5.80;;;21.30;99.90;;;;;;5093797;28;20454;-80
2023/10/10 09:03:07;;;;;;;17.23;6.88;;;21.20;99.90;;;;;;5094714;28;20050;-79
2023/10/10 09:05:33;;;;;;;16.65;9.57;;;21.10;99.60;;;;;;5094670;28;20085;-81
2023/10/10 09:08:14;;;;;;;17.50;9.10;;;21.10;99.90;;;;;;5094863;28;20032;-79
2023/10/10 09:10:42;;;;;;;21.27;6.82;;;21.40;99.90;;;;;;5094461;28;20027;-79
2023/10/10 09:13:09;;;;;;;25.95;10.50;;;;;;;;;;5094259;28;20067;-80
2023/10/10 09:15:36;;;;;;;17.88;9.25;;;21.60;98.80;;;;;;5093624;28;20023;-79
2023/10/10 09:18:22;;;;;;;16.70;9.10;;;21.60;97.10;;;;;;5094188;28;20024;-82
